sensor_id;sensor_type;location;lat;lon;timestamp;P1;durP1;ratioP1;P2;durP2;ratioP2
50355;SDS011;36264;51.296;-0.602;2023-02-28T00:00:07;6.38;;;2.08;;
50355;SDS011;36264;51.296;-0.602;2023-02-28T00:02:42;5.07;;;1.40;;
50355;SDS011;36264;51.296;-0.602;2023-02-28T00:05:08;3.35;;;1.45;;
50355;SDS011;36264;51.296;-0.602;2023-02-28T00:07:35;3.28;;;1.45;;
50355;SDS011;36264;51.296;-0.602;2023-02-28T00:10:01;6.50;;;1.88;;
50355;SDS011;36264;51.296;-0.602;2023-02-28T00:12:27;8.48;;;1.63;;
50355;SDS011;36264;51.296;-0.602;2023-02-28T00:14:53;4.07;;;1.63;;
50355;SDS011;36264;51.296;-0.602;2023-02-28T00:17:18;6.32;;;1.85;;
50355;SDS011;36264;51.296;-0.602;2023-02-28T00:19:49;7.50;;;2.60;;
50355;SDS011;36264;51.296;-0.602;2023-02-28T00:22:16;12.52;;;4.55;;
50355;SDS011;36264;51.296;-0.602;2023-02-28T00:24:42;10.70;;;4.00;;
50355;SDS011;36264;51.296;-0.602;2023-02-28T00:27:08;9.40;;;3.20;;
50355;SDS011;36264;51.296;-0.602;2023-02-28T00:29:34;8.15;;;4.13;;
50355;SDS011;36264;51.296;-0.602;2023-02-28T00:31:59;6.40;;;3.00;;
50355;SDS011;36264;51.296;-0.602;2023-02-28T00:34:25;9.00;;;2.45;;
50355;SDS011;36264;51.296;-0.602;2023-02-28T00:36:50;5.45;;;2.47;;
50355;SDS011;36264;51.296;-0.602;2023-02-28T00:39:15;6.65;;;2.45;;
50355;SDS011;36264;51.296;-0.602;2023-02-28T00:41:41;4.80;;;2.00;;
50355;SDS011;36264;51.296;-0.602;2023-02-28T00:44:07;6.93;;;2.10;;
50355;SDS011;36264;51.296;-0.602;2023-02-28T00:46:32;6.15;;;2.33;;
50355;SDS011;36264;51.296;-0.602;2023-02-28T00:48:58;4.78;;;1.75;;
50355;SDS011;36264;51.296;-0.602;2023-02-28T00:51:23;6.80;;;1.80;;
50355;SDS011;36264;51.296;-0.602;2023-02-28T00:53:49;6.07;;;1.92;;
50355;SDS011;36264;51.296;-0.602;2023-02-28T00:56:14;7.25;;;1.73;;
50355;SDS011;36264;51.296;-0.602;2023-02-28T00:58:40;7.10;;;1.70;;
50355;SDS011;36264;51.296;-0.602;2023-02-28T01:01:05;3.78;;;1.67;;
50355;SDS011;36264;51.296;-0.602;2023-02-28T01:03:31;5.25;;;1.80;;
50355;SDS011;36264;51.296;-0.602;2023-02-28T01:05:56;4.15;;;1.60;;
50355;SDS011;36264;51.296;-0.602;2023-02-28T01:08:22;6.78;;;1.83;;
50355;SDS011;36264;51.296;-0.602;2023-02-28T01:10:48;4.32;;;1.60;;
50355;SDS011;36264;51.296;-0.602;2023-02-28T01:13:13;5.10;;;1.77;;
50355;SDS011;36264;51.296;-0.602;2023-02-28T01:15:43;3.17;;;1.65;;
50355;SDS011;36264;51.296;-0.602;2023-02-28T01:18:17;4.90;;;1.70;;
50355;SDS011;36264;51.296;-0.602;2023-02-28T01:20:43;4.93;;;1.70;;
50355;SDS011;36264;51.296;-0.602;2023-02-28T01:23:08;3.85;;;1.70;;
50355;SDS011;36264;51.296;-0.602;2023-02-28T01:25:36;5.63;;;1.80;;
50355;SDS011;36264;51.296;-0.602;2023-02-28T01:28:02;6.80;;;2.00;;
50355;SDS011;36264;51.296;-0.602;2023-02-28T01:30:28;4.72;;;1.60;;
50355;SDS011;36264;51.296;-0.602;2023-02-28T01:32:53;5.40;;;1.70;;
50355;SDS011;36264;51.296;-0.602;2023-02-28T01:35:19;4.05;;;1.60;;
50355;SDS011;36264;51.296;-0.602;2023-02-28T01:37:45;5.43;;;1.60;;
50355;SDS011;36264;51.296;-0.602;2023-02-28T01:40:10;4.40;;;1.60;;
50355;SDS011;36264;51.296;-0.602;2023-02-28T01:42:37;5.22;;;2.10;;
50355;SDS011;36264;51.296;-0.602;2023-02-28T01:47:46;4.07;;;1.63;;
50355;SDS011;36264;51.296;-0.602;2023-02-28T01:50:16;3.65;;;1.60;;
50355;SDS011;36264;51.296;-0.602;2023-02-28T01:52:45;3.30;;;1.50;;
50355;SDS011;36264;51.296;-0.602;2023-02-28T01:55:12;3.80;;;1.73;;
50355;SDS011;36264;51.296;-0.602;2023-02-28T01:57:39;5.47;;;1.55;;
50355;SDS011;36264;51.296;-0.602;2023-02-28T02:00:12;3.42;;;1.65;;
50355;SDS011;36264;51.296;-0.602;2023-02-28T02:02:43;3.15;;;1.70;;
50355;SDS011;36264;51.296;-0.602;2023-02-28T02:05:30;5.90;;;1.77;;
50355;SDS011;36264;51.296;-0.602;2023-02-28T02:08:03;4.43;;;1.83;;
50355;SDS011;36264;51.296;-0.602;2023-02-28T02:10:35;5.43;;;1.67;;
50355;SDS011;36264;51.296;-0.602;2023-02-28T02:19:15;3.42;;;1.60;;
50355;SDS011;36264;51.296;-0.602;2023-02-28T02:27:36;3.20;;;1.50;;
50355;SDS011;36264;51.296;-0.602;2023-02-28T02:35:42;4.45;;;2.00;;
50355;SDS011;36264;51.296;-0.602;2023-02-28T02:40:50;5.22;;;2.05;;
50355;SDS011;36264;51.296;-0.602;2023-02-28T02:43:19;3.97;;;1.88;;
50355;SDS011;36264;51.296;-0.602;2023-02-28T02:45:52;4.38;;;2.00;;
50355;SDS011;36264;51.296;-0.602;2023-02-28T02:50:51;3.70;;;1.70;;
50355;SDS011;36264;51.296;-0.602;2023-02-28T02:53:21;8.75;;;1.80;;
50355;SDS011;36264;51.296;-0.602;2023-02-28T02:55:53;6.03;;;2.03;;
50355;SDS011;36264;51.296;-0.602;2023-02-28T02:58:28;6.78;;;2.10;;
50355;SDS011;36264;51.296;-0.602;2023-02-28T03:00:59;6.25;;;2.03;;
50355;SDS011;36264;51.296;-0.602;2023-02-28T03:03:27;6.28;;;2.08;;
50355;SDS011;36264;51.296;-0.602;2023-02-28T03:05:59;5.95;;;2.90;;
50355;SDS011;36264;51.296;-0.602;2023-02-28T03:08:26;6.68;;;1.88;;
50355;SDS011;36264;51.296;-0.602;2023-02-28T03:10:56;4.10;;;1.85;;
50355;SDS011;36264;51.296;-0.602;2023-02-28T03:16:22;4.55;;;2.03;;
50355;SDS011;36264;51.296;-0.602;2023-02-28T03:24:36;5.82;;;2.10;;
50355;SDS011;36264;51.296;-0.602;2023-02-28T03:27:17;3.75;;;1.73;;
50355;SDS011;36264;51.296;-0.602;2023-02-28T03:30:02;7.55;;;2.22;;
50355;SDS011;36264;51.296;-0.602;2023-02-28T03:32:55;9.80;;;2.15;;
50355;SDS011;36264;51.296;-0.602;2023-02-28T03:35:26;7.22;;;2.05;;
50355;SDS011;36264;51.296;-0.602;2023-02-28T03:40:25;5.18;;;1.90;;
50355;SDS011;36264;51.296;-0.602;2023-02-28T03:42:57;6.00;;;2.20;;
50355;SDS011;36264;51.296;-0.602;2023-02-28T03:45:30;9.00;;;2.25;;
50355;SDS011;36264;51.296;-0.602;2023-02-28T03:48:12;4.45;;;2.00;;
50355;SDS011;36264;51.296;-0.602;2023-02-28T03:50:41;5.28;;;2.10;;
50355;SDS011;36264;51.296;-0.602;2023-02-28T03:56:16;7.65;;;2.80;;
50355;SDS011;36264;51.296;-0.602;2023-02-28T03:58:47;6.93;;;2.57;;
50355;SDS011;36264;51.296;-0.602;2023-02-28T04:01:20;7.43;;;2.88;;
50355;SDS011;36264;51.296;-0.602;2023-02-28T04:03:50;9.23;;;3.05;;
50355;SDS011;36264;51.296;-0.602;2023-02-28T04:06:17;5.30;;;2.50;;
50355;SDS011;36264;51.296;-0.602;2023-02-28T04:08:45;9.10;;;2.70;;
50355;SDS011;36264;51.296;-0.602;2023-02-28T04:11:29;7.32;;;2.40;;
50355;SDS011;36264;51.296;-0.602;2023-02-28T04:14:02;7.38;;;2.40;;
50355;SDS011;36264;51.296;-0.602;2023-02-28T04:16:29;6.60;;;2.58;;
50355;SDS011;36264;51.296;-0.602;2023-02-28T04:18:55;7.68;;;2.35;;
50355;SDS011;36264;51.296;-0.602;2023-02-28T04:21:27;3.83;;;1.83;;
50355;SDS011;36264;51.296;-0.602;2023-02-28T04:24:16;11.90;;;2.63;;
50355;SDS011;36264;51.296;-0.602;2023-02-28T04:26:46;5.03;;;2.20;;
50355;SDS011;36264;51.296;-0.602;2023-02-28T04:29:14;13.10;;;3.08;;
50355;SDS011;36264;51.296;-0.602;2023-02-28T04:31:44;9.43;;;2.70;;
50355;SDS011;36264;51.296;-0.602;2023-02-28T04:34:10;9.27;;;3.03;;
50355;SDS011;36264;51.296;-0.602;2023-02-28T04:36:35;8.65;;;2.70;;
50355;SDS011;36264;51.296;-0.602;2023-02-28T04:39:00;5.93;;;2.25;;
50355;SDS011;36264;51.296;-0.602;2023-02-28T04:41:26;5.18;;;2.60;;
50355;SDS011;36264;51.296;-0.602;2023-02-28T04:43:51;8.07;;;2.67;;
50355;SDS011;36264;51.296;-0.602;2023-02-28T04:46:17;9.60;;;2.72;;
50355;SDS011;36264;51.296;-0.602;2023-02-28T04:48:43;5.78;;;2.58;;
50355;SDS011;36264;51.296;-0.602;2023-02-28T04:51:10;7.28;;;2.33;;
50355;SDS011;36264;51.296;-0.602;2023-02-28T04:53:38;12.13;;;3.33;;
50355;SDS011;36264;51.296;-0.602;2023-02-28T04:56:05;7.72;;;3.33;;
50355;SDS011;36264;51.296;-0.602;2023-02-28T04:58:32;11.27;;;3.72;;
50355;SDS011;36264;51.296;-0.602;2023-02-28T05:01:02;11.95;;;4.75;;
50355;SDS011;36264;51.296;-0.602;2023-02-28T05:05:54;13.07;;;4.03;;
50355;SDS011;36264;51.296;-0.602;2023-02-28T05:08:20;8.55;;;3.17;;
50355;SDS011;36264;51.296;-0.602;2023-02-28T05:10:45;8.50;;;2.75;;
50355;SDS011;36264;51.296;-0.602;2023-02-28T05:13:14;6.78;;;3.00;;
50355;SDS011;36264;51.296;-0.602;2023-02-28T05:15:39;10.18;;;2.72;;
50355;SDS011;36264;51.296;-0.602;2023-02-28T05:18:04;7.57;;;3.05;;
50355;SDS011;36264;51.296;-0.602;2023-02-28T05:20:30;9.05;;;3.13;;
50355;SDS011;36264;51.296;-0.602;2023-02-28T05:22:56;6.28;;;2.63;;
50355;SDS011;36264;51.296;-0.602;2023-02-28T05:25:23;7.68;;;2.72;;
50355;SDS011;36264;51.296;-0.602;2023-02-28T05:27:48;6.32;;;2.30;;
50355;SDS011;36264;51.296;-0.602;2023-02-28T05:30:14;8.02;;;2.92;;
50355;SDS011;36264;51.296;-0.602;2023-02-28T05:32:40;8.02;;;2.67;;
50355;SDS011;36264;51.296;-0.602;2023-02-28T05:35:08;9.27;;;2.40;;
50355;SDS011;36264;51.296;-0.602;2023-02-28T05:37:38;6.22;;;2.65;;
50355;SDS011;36264;51.296;-0.602;2023-02-28T05:40:04;6.72;;;2.50;;
50355;SDS011;36264;51.296;-0.602;2023-02-28T05:42:31;7.28;;;2.20;;
50355;SDS011;36264;51.296;-0.602;2023-02-28T05:44:57;7.85;;;2.75;;
50355;SDS011;36264;51.296;-0.602;2023-02-28T05:47:23;6.13;;;2.47;;
50355;SDS011;36264;51.296;-0.602;2023-02-28T05:49:49;3.63;;;2.00;;
50355;SDS011;36264;51.296;-0.602;2023-02-28T05:52:14;4.38;;;2.10;;
50355;SDS011;36264;51.296;-0.602;2023-02-28T05:54:40;6.03;;;2.30;;
50355;SDS011;36264;51.296;-0.602;2023-02-28T05:57:06;7.97;;;2.30;;
50355;SDS011;36264;51.296;-0.602;2023-02-28T05:59:31;7.45;;;2.50;;
50355;SDS011;36264;51.296;-0.602;2023-02-28T06:01:57;7.88;;;2.20;;
50355;SDS011;36264;51.296;-0.602;2023-02-28T06:04:22;5.32;;;2.17;;
50355;SDS011;36264;51.296;-0.602;2023-02-28T06:06:48;4.35;;;2.20;;
50355;SDS011;36264;51.296;-0.602;2023-02-28T06:09:15;5.15;;;2.08;;
50355;SDS011;36264;51.296;-0.602;2023-02-28T06:11:40;6.88;;;2.13;;
50355;SDS011;36264;51.296;-0.602;2023-02-28T06:14:06;8.05;;;2.10;;
50355;SDS011;36264;51.296;-0.602;2023-02-28T06:16:33;6.95;;;2.25;;
50355;SDS011;36264;51.296;-0.602;2023-02-28T06:19:00;7.57;;;2.60;;
50355;SDS011;36264;51.296;-0.602;2023-02-28T06:21:27;8.15;;;3.95;;
50355;SDS011;36264;51.296;-0.602;2023-02-28T06:23:53;9.77;;;3.88;;
50355;SDS011;36264;51.296;-0.602;2023-02-28T06:26:19;9.90;;;3.50;;
50355;SDS011;36264;51.296;-0.602;2023-02-28T06:28:45;13.85;;;4.20;;
50355;SDS011;36264;51.296;-0.602;2023-02-28T06:31:11;12.77;;;4.70;;
50355;SDS011;36264;51.296;-0.602;2023-02-28T06:33:38;8.18;;;3.88;;
50355;SDS011;36264;51.296;-0.602;2023-02-28T06:36:05;13.73;;;4.50;;
50355;SDS011;36264;51.296;-0.602;2023-02-28T06:38:32;12.23;;;4.63;;
50355;SDS011;36264;51.296;-0.602;2023-02-28T06:40:58;13.50;;;4.38;;
50355;SDS011;36264;51.296;-0.602;2023-02-28T06:43:25;8.63;;;3.88;;
50355;SDS011;36264;51.296;-0.602;2023-02-28T06:45:56;8.90;;;3.60;;
50355;SDS011;36264;51.296;-0.602;2023-02-28T06:48:26;11.57;;;4.30;;
50355;SDS011;36264;51.296;-0.602;2023-02-28T06:50:52;11.88;;;3.70;;
50355;SDS011;36264;51.296;-0.602;2023-02-28T06:53:27;9.38;;;4.50;;
50355;SDS011;36264;51.296;-0.602;2023-02-28T06:55:52;10.95;;;4.45;;
50355;SDS011;36264;51.296;-0.602;2023-02-28T06:58:17;10.45;;;3.65;;
50355;SDS011;36264;51.296;-0.602;2023-02-28T07:00:44;8.95;;;3.70;;
50355;SDS011;36264;51.296;-0.602;2023-02-28T07:03:11;7.22;;;3.13;;
50355;SDS011;36264;51.296;-0.602;2023-02-28T07:05:38;6.78;;;3.13;;
50355;SDS011;36264;51.296;-0.602;2023-02-28T07:08:04;7.72;;;2.78;;
50355;SDS011;36264;51.296;-0.602;2023-02-28T07:10:31;10.30;;;3.80;;
50355;SDS011;36264;51.296;-0.602;2023-02-28T07:12:57;13.48;;;4.40;;
50355;SDS011;36264;51.296;-0.602;2023-02-28T07:15:23;12.60;;;4.22;;
50355;SDS011;36264;51.296;-0.602;2023-02-28T07:17:48;12.40;;;4.85;;
50355;SDS011;36264;51.296;-0.602;2023-02-28T07:20:13;16.73;;;5.45;;
50355;SDS011;36264;51.296;-0.602;2023-02-28T07:22:39;14.43;;;5.43;;
50355;SDS011;36264;51.296;-0.602;2023-02-28T07:25:04;14.50;;;5.28;;
50355;SDS011;36264;51.296;-0.602;2023-02-28T07:27:31;12.07;;;5.28;;
50355;SDS011;36264;51.296;-0.602;2023-02-28T07:29:56;18.50;;;6.35;;
50355;SDS011;36264;51.296;-0.602;2023-02-28T07:32:22;15.10;;;5.20;;
50355;SDS011;36264;51.296;-0.602;2023-02-28T07:34:47;13.55;;;4.57;;
50355;SDS011;36264;51.296;-0.602;2023-02-28T07:37:13;11.18;;;4.03;;
50355;SDS011;36264;51.296;-0.602;2023-02-28T07:39:39;11.55;;;4.28;;
50355;SDS011;36264;51.296;-0.602;2023-02-28T07:42:07;7.75;;;3.85;;
50355;SDS011;36264;51.296;-0.602;2023-02-28T07:44:35;8.52;;;3.65;;
50355;SDS011;36264;51.296;-0.602;2023-02-28T07:47:05;8.85;;;3.45;;
50355;SDS011;36264;51.296;-0.602;2023-02-28T07:49:34;8.20;;;3.63;;
50355;SDS011;36264;51.296;-0.602;2023-02-28T07:52:03;9.02;;;3.70;;
50355;SDS011;36264;51.296;-0.602;2023-02-28T07:54:29;9.80;;;3.33;;
50355;SDS011;36264;51.296;-0.602;2023-02-28T07:56:55;10.13;;;3.40;;
50355;SDS011;36264;51.296;-0.602;2023-02-28T07:59:20;8.10;;;3.55;;
50355;SDS011;36264;51.296;-0.602;2023-02-28T08:01:46;8.52;;;3.58;;
50355;SDS011;36264;51.296;-0.602;2023-02-28T08:04:11;6.28;;;2.80;;
50355;SDS011;36264;51.296;-0.602;2023-02-28T08:06:36;6.57;;;2.85;;
50355;SDS011;36264;51.296;-0.602;2023-02-28T08:09:02;7.35;;;2.83;;
50355;SDS011;36264;51.296;-0.602;2023-02-28T08:11:27;9.95;;;3.25;;
50355;SDS011;36264;51.296;-0.602;2023-02-28T08:13:54;8.48;;;3.20;;
50355;SDS011;36264;51.296;-0.602;2023-02-28T08:16:19;8.98;;;3.60;;
50355;SDS011;36264;51.296;-0.602;2023-02-28T08:18:47;9.27;;;3.20;;
50355;SDS011;36264;51.296;-0.602;2023-02-28T08:21:14;7.05;;;3.25;;
50355;SDS011;36264;51.296;-0.602;2023-02-28T08:23:40;9.60;;;3.60;;
50355;SDS011;36264;51.296;-0.602;2023-02-28T08:26:05;8.02;;;3.60;;
50355;SDS011;36264;51.296;-0.602;2023-02-28T08:28:31;7.63;;;3.30;;
50355;SDS011;36264;51.296;-0.602;2023-02-28T08:30:57;7.80;;;3.10;;
50355;SDS011;36264;51.296;-0.602;2023-02-28T08:33:23;8.95;;;3.30;;
50355;SDS011;36264;51.296;-0.602;2023-02-28T08:35:52;10.02;;;3.70;;
50355;SDS011;36264;51.296;-0.602;2023-02-28T08:38:18;6.75;;;2.92;;
50355;SDS011;36264;51.296;-0.602;2023-02-28T08:40:44;8.68;;;3.50;;
50355;SDS011;36264;51.296;-0.602;2023-02-28T08:43:09;11.38;;;4.15;;
50355;SDS011;36264;51.296;-0.602;2023-02-28T08:45:35;7.95;;;3.13;;
50355;SDS011;36264;51.296;-0.602;2023-02-28T08:48:00;8.70;;;4.30;;
50355;SDS011;36264;51.296;-0.602;2023-02-28T08:50:25;7.88;;;3.35;;
50355;SDS011;36264;51.296;-0.602;2023-02-28T08:52:51;7.95;;;3.78;;
50355;SDS011;36264;51.296;-0.602;2023-02-28T08:55:16;9.43;;;3.95;;
50355;SDS011;36264;51.296;-0.602;2023-02-28T08:57:41;7.38;;;3.50;;
50355;SDS011;36264;51.296;-0.602;2023-02-28T09:00:07;10.13;;;3.80;;
50355;SDS011;36264;51.296;-0.602;2023-02-28T09:02:33;8.45;;;4.03;;
50355;SDS011;36264;51.296;-0.602;2023-02-28T09:04:58;7.25;;;3.72;;
50355;SDS011;36264;51.296;-0.602;2023-02-28T09:07:24;6.30;;;3.80;;
50355;SDS011;36264;51.296;-0.602;2023-02-28T09:09:50;9.30;;;3.95;;
50355;SDS011;36264;51.296;-0.602;2023-02-28T09:12:22;9.05;;;3.97;;
50355;SDS011;36264;51.296;-0.602;2023-02-28T09:14:51;7.35;;;4.22;;
50355;SDS011;36264;51.296;-0.602;2023-02-28T09:17:17;6.65;;;3.70;;
50355;SDS011;36264;51.296;-0.602;2023-02-28T09:19:43;5.97;;;3.60;;
50355;SDS011;36264;51.296;-0.602;2023-02-28T09:22:09;6.20;;;3.65;;
50355;SDS011;36264;51.296;-0.602;2023-02-28T09:24:36;6.72;;;4.15;;
50355;SDS011;36264;51.296;-0.602;2023-02-28T09:27:02;6.63;;;3.72;;
50355;SDS011;36264;51.296;-0.602;2023-02-28T09:29:28;8.07;;;3.40;;
50355;SDS011;36264;51.296;-0.602;2023-02-28T09:31:53;8.73;;;4.63;;
50355;SDS011;36264;51.296;-0.602;2023-02-28T09:34:18;9.35;;;5.00;;
50355;SDS011;36264;51.296;-0.602;2023-02-28T09:36:44;14.73;;;5.85;;
50355;SDS011;36264;51.296;-0.602;2023-02-28T09:39:10;13.32;;;6.25;;
50355;SDS011;36264;51.296;-0.602;2023-02-28T09:41:38;14.25;;;6.60;;
50355;SDS011;36264;51.296;-0.602;2023-02-28T09:44:12;14.60;;;6.93;;
50355;SDS011;36264;51.296;-0.602;2023-02-28T09:46:46;14.88;;;8.05;;
50355;SDS011;36264;51.296;-0.602;2023-02-28T09:49:18;13.05;;;6.40;;
50355;SDS011;36264;51.296;-0.602;2023-02-28T09:54:18;9.30;;;4.95;;
50355;SDS011;36264;51.296;-0.602;2023-02-28T09:56:47;8.98;;;4.80;;
50355;SDS011;36264;51.296;-0.602;2023-02-28T10:02:35;9.98;;;4.20;;
50355;SDS011;36264;51.296;-0.602;2023-02-28T10:05:13;8.43;;;3.80;;
50355;SDS011;36264;51.296;-0.602;2023-02-28T10:13:02;5.90;;;2.60;;
50355;SDS011;36264;51.296;-0.602;2023-02-28T10:15:31;5.47;;;2.40;;
50355;SDS011;36264;51.296;-0.602;2023-02-28T10:18:00;4.25;;;2.30;;
50355;SDS011;36264;51.296;-0.602;2023-02-28T10:20:37;4.35;;;2.28;;
50355;SDS011;36264;51.296;-0.602;2023-02-28T10:25:37;3.47;;;1.80;;
50355;SDS011;36264;51.296;-0.602;2023-02-28T10:30:37;3.25;;;1.83;;
50355;SDS011;36264;51.296;-0.602;2023-02-28T10:33:09;4.35;;;1.90;;
50355;SDS011;36264;51.296;-0.602;2023-02-28T10:35:44;2.85;;;1.80;;
50355;SDS011;36264;51.296;-0.602;2023-02-28T10:38:13;3.33;;;1.70;;
50355;SDS011;36264;51.296;-0.602;2023-02-28T10:40:42;3.20;;;1.50;;
50355;SDS011;36264;51.296;-0.602;2023-02-28T10:48:27;3.22;;;1.70;;
50355;SDS011;36264;51.296;-0.602;2023-02-28T10:51:02;3.53;;;1.70;;
50355;SDS011;36264;51.296;-0.602;2023-02-28T11:01:19;3.97;;;1.90;;
50355;SDS011;36264;51.296;-0.602;2023-02-28T11:03:47;2.72;;;1.42;;
50355;SDS011;36264;51.296;-0.602;2023-02-28T11:06:25;5.03;;;1.77;;
50355;SDS011;36264;51.296;-0.602;2023-02-28T11:09:38;2.58;;;1.33;;
50355;SDS011;36264;51.296;-0.602;2023-02-28T11:11:51;3.63;;;1.70;;
50355;SDS011;36264;51.296;-0.602;2023-02-28T11:16:51;3.60;;;1.80;;
50355;SDS011;36264;51.296;-0.602;2023-02-28T11:19:28;3.45;;;1.60;;
50355;SDS011;36264;51.296;-0.602;2023-02-28T11:22:03;2.85;;;1.50;;
50355;SDS011;36264;51.296;-0.602;2023-02-28T11:24:31;2.60;;;1.40;;
50355;SDS011;36264;51.296;-0.602;2023-02-28T11:27:00;2.70;;;1.42;;
50355;SDS011;36264;51.296;-0.602;2023-02-28T11:32:04;2.55;;;1.20;;
50355;SDS011;36264;51.296;-0.602;2023-02-28T11:34:32;2.70;;;1.40;;
50355;SDS011;36264;51.296;-0.602;2023-02-28T11:36:58;2.80;;;1.50;;
50355;SDS011;36264;51.296;-0.602;2023-02-28T11:39:26;5.05;;;1.50;;
50355;SDS011;36264;51.296;-0.602;2023-02-28T11:44:27;3.50;;;1.40;;
50355;SDS011;36264;51.296;-0.602;2023-02-28T11:50:07;4.95;;;1.40;;
50355;SDS011;36264;51.296;-0.602;2023-02-28T12:19:49;5.60;;;2.60;;
50355;SDS011;36264;51.296;-0.602;2023-02-28T12:22:27;4.93;;;2.60;;
50355;SDS011;36264;51.296;-0.602;2023-02-28T12:27:37;4.95;;;2.58;;
50355;SDS011;36264;51.296;-0.602;2023-02-28T12:30:13;3.95;;;1.90;;
50355;SDS011;36264;51.296;-0.602;2023-02-28T12:32:41;4.07;;;2.22;;
50355;SDS011;36264;51.296;-0.602;2023-02-28T12:38:02;4.72;;;2.47;;
50355;SDS011;36264;51.296;-0.602;2023-02-28T12:40:42;3.80;;;2.13;;
50355;SDS011;36264;51.296;-0.602;2023-02-28T12:43:08;4.43;;;2.50;;
50355;SDS011;36264;51.296;-0.602;2023-02-28T12:48:16;4.05;;;2.28;;
50355;SDS011;36264;51.296;-0.602;2023-02-28T12:50:47;4.40;;;2.22;;
50355;SDS011;36264;51.296;-0.602;2023-02-28T12:53:35;4.85;;;2.50;;
50355;SDS011;36264;51.296;-0.602;2023-02-28T12:58:54;5.38;;;2.33;;
50355;SDS011;36264;51.296;-0.602;2023-02-28T13:01:47;4.03;;;2.28;;
50355;SDS011;36264;51.296;-0.602;2023-02-28T13:09:41;3.95;;;2.35;;
50355;SDS011;36264;51.296;-0.602;2023-02-28T13:12:18;3.92;;;2.00;;
50355;SDS011;36264;51.296;-0.602;2023-02-28T13:14:45;5.47;;;3.10;;
50355;SDS011;36264;51.296;-0.602;2023-02-28T13:17:11;4.28;;;2.15;;
50355;SDS011;36264;51.296;-0.602;2023-02-28T13:19:43;3.00;;;1.88;;
50355;SDS011;36264;51.296;-0.602;2023-02-28T13:22:16;5.30;;;2.15;;
50355;SDS011;36264;51.296;-0.602;2023-02-28T13:24:54;4.05;;;2.05;;
50355;SDS011;36264;51.296;-0.602;2023-02-28T13:27:24;4.78;;;2.67;;
50355;SDS011;36264;51.296;-0.602;2023-02-28T13:29:58;3.90;;;2.30;;
50355;SDS011;36264;51.296;-0.602;2023-02-28T13:39:45;4.80;;;2.28;;
50355;SDS011;36264;51.296;-0.602;2023-02-28T13:47:27;4.47;;;2.10;;
50355;SDS011;36264;51.296;-0.602;2023-02-28T13:49:53;4.28;;;2.30;;
50355;SDS011;36264;51.296;-0.602;2023-02-28T13:52:22;4.55;;;2.55;;
50355;SDS011;36264;51.296;-0.602;2023-02-28T13:57:44;3.80;;;2.15;;
50355;SDS011;36264;51.296;-0.602;2023-02-28T14:05:36;4.72;;;2.47;;
50355;SDS011;36264;51.296;-0.602;2023-02-28T14:08:06;4.13;;;1.92;;
50355;SDS011;36264;51.296;-0.602;2023-02-28T14:10:46;4.47;;;2.55;;
50355;SDS011;36264;51.296;-0.602;2023-02-28T14:16:22;4.18;;;2.60;;
50355;SDS011;36264;51.296;-0.602;2023-02-28T14:21:32;4.97;;;2.40;;
50355;SDS011;36264;51.296;-0.602;2023-02-28T14:37:46;3.85;;;2.10;;
50355;SDS011;36264;51.296;-0.602;2023-02-28T14:40:21;4.00;;;2.33;;
50355;SDS011;36264;51.296;-0.602;2023-02-28T14:45:24;4.90;;;2.28;;
50355;SDS011;36264;51.296;-0.602;2023-02-28T14:47:53;3.63;;;1.88;;
50355;SDS011;36264;51.296;-0.602;2023-02-28T14:50:27;3.78;;;2.17;;
50355;SDS011;36264;51.296;-0.602;2023-02-28T14:52:55;5.47;;;2.08;;
50355;SDS011;36264;51.296;-0.602;2023-02-28T14:55:29;5.38;;;2.60;;
50355;SDS011;36264;51.296;-0.602;2023-02-28T14:57:57;4.22;;;2.10;;
50355;SDS011;36264;51.296;-0.602;2023-02-28T15:00:27;2.58;;;1.50;;
50355;SDS011;36264;51.296;-0.602;2023-02-28T15:02:58;3.45;;;1.70;;
50355;SDS011;36264;51.296;-0.602;2023-02-28T15:05:26;4.28;;;1.77;;
50355;SDS011;36264;51.296;-0.602;2023-02-28T15:10:35;2.28;;;1.50;;
50355;SDS011;36264;51.296;-0.602;2023-02-28T15:15:50;2.63;;;1.48;;
50355;SDS011;36264;51.296;-0.602;2023-02-28T15:18:49;3.17;;;1.40;;
50355;SDS011;36264;51.296;-0.602;2023-02-28T15:21:18;2.92;;;1.40;;
50355;SDS011;36264;51.296;-0.602;2023-02-28T15:23:49;2.50;;;1.30;;
50355;SDS011;36264;51.296;-0.602;2023-02-28T15:26:55;2.05;;;1.35;;
50355;SDS011;36264;51.296;-0.602;2023-02-28T15:29:24;3.08;;;1.52;;
50355;SDS011;36264;51.296;-0.602;2023-02-28T15:32:02;3.13;;;1.30;;
50355;SDS011;36264;51.296;-0.602;2023-02-28T15:34:40;5.00;;;1.45;;
50355;SDS011;36264;51.296;-0.602;2023-02-28T15:37:38;2.88;;;1.27;;
50355;SDS011;36264;51.296;-0.602;2023-02-28T15:40:10;1.40;;;1.10;;
50355;SDS011;36264;51.296;-0.602;2023-02-28T15:45:01;3.30;;;1.30;;
50355;SDS011;36264;51.296;-0.602;2023-02-28T15:47:28;3.15;;;1.10;;
50355;SDS011;36264;51.296;-0.602;2023-02-28T15:54:58;3.13;;;1.40;;
50355;SDS011;36264;51.296;-0.602;2023-02-28T15:57:24;2.35;;;1.33;;
50355;SDS011;36264;51.296;-0.602;2023-02-28T15:59:57;2.58;;;1.30;;
50355;SDS011;36264;51.296;-0.602;2023-02-28T16:02:30;4.13;;;1.40;;
50355;SDS011;36264;51.296;-0.602;2023-02-28T16:09:56;3.45;;;1.42;;
50355;SDS011;36264;51.296;-0.602;2023-02-28T16:12:24;3.50;;;1.50;;
50355;SDS011;36264;51.296;-0.602;2023-02-28T16:14:52;2.92;;;1.30;;
50355;SDS011;36264;51.296;-0.602;2023-02-28T16:17:23;2.95;;;1.55;;
50355;SDS011;36264;51.296;-0.602;2023-02-28T16:19:51;2.30;;;1.40;;
50355;SDS011;36264;51.296;-0.602;2023-02-28T16:22:16;2.65;;;1.50;;
50355;SDS011;36264;51.296;-0.602;2023-02-28T16:24:42;2.53;;;1.30;;
50355;SDS011;36264;51.296;-0.602;2023-02-28T16:27:10;3.63;;;1.20;;
50355;SDS011;36264;51.296;-0.602;2023-02-28T16:29:46;3.50;;;1.75;;
50355;SDS011;36264;51.296;-0.602;2023-02-28T16:32:14;2.40;;;1.40;;
50355;SDS011;36264;51.296;-0.602;2023-02-28T16:34:41;2.38;;;1.08;;
50355;SDS011;36264;51.296;-0.602;2023-02-28T16:37:12;5.55;;;1.50;;
50355;SDS011;36264;51.296;-0.602;2023-02-28T16:39:39;3.67;;;1.45;;
50355;SDS011;36264;51.296;-0.602;2023-02-28T16:42:05;3.03;;;1.60;;
50355;SDS011;36264;51.296;-0.602;2023-02-28T16:44:33;4.47;;;1.80;;
50355;SDS011;36264;51.296;-0.602;2023-02-28T16:47:00;2.78;;;1.35;;
50355;SDS011;36264;51.296;-0.602;2023-02-28T16:49:27;2.97;;;1.52;;
50355;SDS011;36264;51.296;-0.602;2023-02-28T16:51:52;2.75;;;1.60;;
50355;SDS011;36264;51.296;-0.602;2023-02-28T16:54:18;4.28;;;1.65;;
50355;SDS011;36264;51.296;-0.602;2023-02-28T16:56:44;2.80;;;1.30;;
50355;SDS011;36264;51.296;-0.602;2023-02-28T16:59:12;3.47;;;1.60;;
50355;SDS011;36264;51.296;-0.602;2023-02-28T17:01:40;3.95;;;1.70;;
50355;SDS011;36264;51.296;-0.602;2023-02-28T17:04:05;3.55;;;1.52;;
50355;SDS011;36264;51.296;-0.602;2023-02-28T17:06:30;5.45;;;1.60;;
50355;SDS011;36264;51.296;-0.602;2023-02-28T17:08:57;3.75;;;1.50;;
50355;SDS011;36264;51.296;-0.602;2023-02-28T17:11:24;4.85;;;1.90;;
50355;SDS011;36264;51.296;-0.602;2023-02-28T17:13:50;4.65;;;2.08;;
50355;SDS011;36264;51.296;-0.602;2023-02-28T17:16:49;4.32;;;1.92;;
50355;SDS011;36264;51.296;-0.602;2023-02-28T17:19:12;4.78;;;2.13;;
50355;SDS011;36264;51.296;-0.602;2023-02-28T17:21:39;4.72;;;2.20;;
50355;SDS011;36264;51.296;-0.602;2023-02-28T17:24:07;6.72;;;2.60;;
50355;SDS011;36264;51.296;-0.602;2023-02-28T17:26:32;4.57;;;1.90;;
50355;SDS011;36264;51.296;-0.602;2023-02-28T17:28:58;5.80;;;2.50;;
50355;SDS011;36264;51.296;-0.602;2023-02-28T17:31:24;5.88;;;2.05;;
50355;SDS011;36264;51.296;-0.602;2023-02-28T17:33:50;5.00;;;2.10;;
50355;SDS011;36264;51.296;-0.602;2023-02-28T17:36:18;3.67;;;1.58;;
50355;SDS011;36264;51.296;-0.602;2023-02-28T17:38:47;3.10;;;1.67;;
50355;SDS011;36264;51.296;-0.602;2023-02-28T17:41:13;5.70;;;1.65;;
50355;SDS011;36264;51.296;-0.602;2023-02-28T17:43:39;3.88;;;1.40;;
50355;SDS011;36264;51.296;-0.602;2023-02-28T17:46:05;3.17;;;1.30;;
50355;SDS011;36264;51.296;-0.602;2023-02-28T17:48:31;2.13;;;1.30;;